Airfield :
LOGIN :

Register | Disclaimer

   EN    FR    IT 

 










Legend :    VFR   Marginal VFR   IFR   Intensive IFR   Very Intensive IFR
Visi :
Ceiling :
>= 8 km
>= 3000ft
5 to 8 km
1000 to 3000 ft
1500m to 5 km
500 to 1000 ft
800 to 1500m
200 to 500 ft
< 800m
< 200 ft
Symbols :   Thunderstorms  Fog  Heavy snow  Heavy precipitations  Wind > 20 kt
SIGMETs :     Misc.  Thunderstorms  Icing  Turbulence  Mountain Waves  Volcanic Ashes






- Airport Elevation : 40 ft
- IATA code : RMI


LIPR - Federico Fellini Int. Rimini

CURRENT METAR :
  • 121350Z 28017KT 4000 RA BR FEW004 SCT008 OVC013 09/08 Q0996

EXPIRED METARs :
  • 121320Z 28017KT 4000 -RA BR FEW004 SCT007 OVC013 09/09 Q0996 REDZ
  • 121250Z 27014KT 3500 DZ BR SCT006 OVC015 10/09 Q0997
  • 121220Z 27015KT 3500 DZ BR SCT008 OVC015 09/09 Q0997
  • 121150Z 27016KT 4000 DZ BR SCT008 OVC015 09/08 Q0997
  • 121120Z 27016KT 4000 DZ BR SCT006 OVC015 09/08 Q0998

TAF TAF LIPR
Valid from the 12 at 12:00 until the 12 at 21:00 UTC


121100Z 1212/1221 29010KT 5000 RA BR BKN012
TEMPO 1218/1221 TSRA



MET'MAP, your aeronautical weather chart ! - Copyright ORBIFLY December 2007 - Disclaimer

ORBIFLY MET'MAP TEAM :

Programming & Development : Alexandra Zaïnal
Concept & Development : Baudouin d'Aumeries
Co-Development & Prog : Marc-Olivier Méhu
Technical & hardware support : Manuel Goepfert

Contact : metmap@orbifly.com




SOURCES & CREDITS :

   NOAA